createdAt,value
2019-03-27T00:01:15.641Z,86.30
2019-03-27T00:03:44.039Z,86.10
2019-03-27T00:06:12.193Z,85.90
2019-03-27T00:08:40.294Z,85.70
2019-03-27T00:11:08.708Z,85.50
2019-03-27T00:13:37.338Z,86.10
2019-03-27T00:16:07.310Z,85.90
2019-03-27T00:18:35.500Z,86.20
2019-03-27T00:21:03.705Z,86.30
2019-03-27T00:23:31.846Z,86.20
2019-03-27T00:26:00.056Z,86.00
2019-03-27T00:28:28.216Z,86.30
2019-03-27T00:30:56.852Z,87.00
2019-03-27T00:33:25.064Z,86.10
2019-03-27T00:35:53.147Z,86.20
2019-03-27T00:38:21.251Z,86.70
2019-03-27T00:40:49.332Z,86.50
2019-03-27T00:43:17.457Z,86.70
2019-03-27T00:45:46.042Z,86.40
2019-03-27T00:48:14.606Z,86.70
2019-03-27T00:50:42.767Z,87.00
2019-03-27T00:53:10.840Z,87.00
2019-03-27T00:55:39.040Z,86.80
2019-03-27T00:58:07.112Z,86.80
2019-03-27T01:01:12.725Z,87.10
2019-03-27T01:03:40.957Z,87.30
2019-03-27T01:06:09.553Z,86.70
2019-03-27T01:08:37.769Z,86.80
2019-03-27T01:11:06.373Z,87.20
2019-03-27T01:13:36.992Z,88.20
2019-03-27T01:16:05.365Z,86.60
2019-03-27T01:18:33.644Z,87.30
2019-03-27T01:21:01.723Z,87.60
2019-03-27T01:23:29.824Z,88.20
2019-03-27T01:25:57.963Z,88.80
2019-03-27T01:28:26.027Z,88.60
2019-03-27T01:30:54.311Z,88.80
2019-03-27T01:33:22.536Z,88.70
2019-03-27T01:35:50.834Z,89.50
2019-03-27T01:38:19.408Z,89.60
2019-03-27T01:40:47.486Z,89.30
2019-03-27T01:43:15.576Z,89.40
2019-03-27T01:45:52.860Z,89.90
2019-03-27T01:48:13.678Z,90.00
2019-03-27T01:50:41.843Z,89.10
2019-03-27T01:53:10.469Z,88.40
2019-03-27T01:55:38.564Z,88.30
2019-03-27T01:58:06.636Z,87.90
2019-03-27T02:00:35.356Z,87.90
2019-03-27T02:03:03.644Z,87.90
2019-03-27T02:05:32.019Z,88.40
2019-03-27T02:08:00.101Z,88.40
2019-03-27T02:10:28.272Z,88.50
2019-03-27T02:12:56.333Z,88.70
2019-03-27T02:15:24.636Z,88.90
2019-03-27T02:17:52.724Z,89.20
2019-03-27T02:20:21.198Z,89.40
2019-03-27T02:22:49.273Z,89.20
2019-03-27T02:25:17.408Z,89.60
2019-03-27T02:27:45.593Z,89.90
2019-03-27T02:30:13.840Z,89.70
2019-03-27T02:32:41.990Z,89.90
2019-03-27T02:35:10.232Z,90.00
2019-03-27T02:37:38.524Z,90.00
2019-03-27T02:40:06.856Z,90.20
2019-03-27T02:42:35.008Z,90.20
2019-03-27T02:45:03.330Z,90.00
2019-03-27T02:47:31.467Z,89.40
2019-03-27T02:49:59.685Z,89.70
2019-03-27T02:52:27.880Z,89.90
2019-03-27T02:54:56.037Z,90.00
2019-03-27T02:57:24.067Z,90.10
2019-03-27T02:59:52.132Z,90.10
2019-03-27T03:02:21.021Z,89.80
2019-03-27T03:04:49.498Z,89.50
2019-03-27T03:07:17.582Z,89.70
2019-03-27T03:09:45.695Z,90.00
2019-03-27T03:12:16.997Z,90.00
2019-03-27T03:14:45.194Z,90.20
2019-03-27T03:17:16.421Z,90.40
2019-03-27T03:19:44.538Z,90.60
2019-03-27T03:22:12.908Z,90.60
2019-03-27T03:24:41.033Z,90.50
2019-03-27T03:27:09.137Z,90.70
2019-03-27T03:29:37.416Z,91.00
2019-03-27T03:32:06.229Z,91.30
2019-03-27T03:34:34.556Z,91.60
2019-03-27T03:37:02.878Z,91.50
2019-03-27T03:39:31.113Z,91.70
2019-03-27T03:41:59.285Z,91.90
2019-03-27T03:44:27.554Z,91.90
2019-03-27T03:47:00.179Z,91.80
2019-03-27T03:49:26.440Z,91.60
2019-03-27T03:51:57.790Z,91.80
2019-03-27T03:54:26.268Z,91.60
2019-03-27T03:56:57.203Z,91.80
2019-03-27T03:59:28.019Z,91.70
2019-03-27T04:01:58.054Z,91.90
2019-03-27T04:04:27.068Z,92.10
2019-03-27T04:06:55.386Z,92.20
2019-03-27T04:09:23.534Z,92.10
2019-03-27T04:11:51.814Z,92.10
2019-03-27T04:14:20.182Z,92.20
2019-03-27T04:16:48.310Z,92.20
2019-03-27T04:19:16.431Z,92.40
2019-03-27T04:21:44.780Z,92.20
2019-03-27T04:24:13.021Z,92.00
2019-03-27T04:26:41.639Z,92.20
2019-03-27T04:29:09.848Z,92.70
2019-03-27T04:31:37.914Z,92.40
2019-03-27T04:34:05.974Z,92.40
2019-03-27T04:36:34.023Z,92.30
2019-03-27T04:39:03.407Z,92.50
2019-03-27T04:41:31.561Z,92.50
2019-03-27T04:44:00.958Z,92.40
2019-03-27T04:46:29.139Z,92.50
2019-03-27T04:48:57.513Z,92.60
2019-03-27T04:51:25.693Z,92.70
2019-03-27T04:53:53.806Z,92.50
2019-03-27T04:56:21.829Z,92.50
2019-03-27T04:58:50.056Z,92.40
2019-03-27T05:01:18.557Z,92.30
2019-03-27T05:03:46.645Z,92.20
2019-03-27T05:06:14.769Z,92.10
2019-03-27T05:08:42.818Z,92.20
2019-03-27T05:11:10.840Z,92.40
2019-03-27T05:13:38.969Z,92.40
2019-03-27T05:16:07.094Z,92.50
2019-03-27T05:18:35.240Z,92.80
2019-03-27T05:21:03.331Z,92.50
2019-03-27T05:23:31.680Z,92.50
2019-03-27T05:25:59.868Z,92.40
2019-03-27T05:28:27.949Z,92.40
2019-03-27T05:30:55.964Z,92.40
2019-03-27T05:33:24.004Z,92.20
2019-03-27T05:35:52.432Z,92.10
2019-03-27T05:38:20.557Z,92.00
2019-03-27T05:40:48.741Z,92.10
2019-03-27T05:43:16.830Z,92.20
2019-03-27T05:45:44.945Z,92.30
2019-03-27T05:48:13.271Z,92.30
2019-03-27T05:50:41.348Z,92.30
2019-03-27T05:53:09.415Z,92.20
2019-03-27T05:55:37.554Z,92.20
2019-03-27T05:58:05.628Z,92.30
2019-03-27T06:00:33.751Z,92.50
2019-03-27T06:03:01.839Z,92.40
2019-03-27T06:05:29.894Z,92.30
2019-03-27T06:07:58.350Z,92.20
2019-03-27T06:10:32.869Z,92.30
2019-03-27T06:13:01.432Z,92.10
2019-03-27T06:15:29.481Z,91.80
2019-03-27T06:17:57.636Z,91.80
2019-03-27T06:20:26.324Z,91.80
2019-03-27T06:22:54.555Z,91.90
2019-03-27T06:25:22.683Z,91.90
2019-03-27T06:27:51.500Z,91.90
2019-03-27T06:30:19.621Z,91.80
2019-03-27T06:32:47.652Z,91.70
2019-03-27T06:35:15.765Z,91.60
2019-03-27T06:37:44.076Z,91.80
2019-03-27T06:40:12.385Z,92.20
2019-03-27T06:42:40.441Z,91.90
2019-03-27T06:45:09.516Z,91.80
2019-03-27T06:47:37.612Z,91.90
2019-03-27T06:50:06.401Z,92.00
2019-03-27T06:52:34.533Z,92.30
2019-03-27T06:55:02.693Z,92.40
2019-03-27T06:57:30.820Z,92.50
2019-03-27T06:59:58.881Z,92.50
2019-03-27T07:02:29.011Z,92.50
2019-03-27T07:04:59.229Z,92.30
2019-03-27T07:07:28.985Z,92.20
2019-03-27T07:10:02.526Z,92.40
2019-03-27T07:12:31.442Z,92.60
2019-03-27T07:14:59.637Z,92.20
2019-03-27T07:17:40.559Z,92.00
2019-03-27T07:20:10.185Z,94.30
2019-03-27T07:22:39.500Z,92.50
2019-03-27T07:25:10.241Z,92.50
2019-03-27T07:27:38.469Z,92.30
2019-03-27T07:30:08.379Z,92.20
2019-03-27T07:32:36.492Z,92.50
2019-03-27T07:35:04.920Z,92.30
2019-03-27T07:37:33.073Z,92.30
2019-03-27T07:40:01.258Z,92.30
2019-03-27T07:42:29.793Z,91.90
2019-03-27T07:44:57.945Z,92.00
2019-03-27T07:47:29.380Z,91.50
2019-03-27T07:49:57.417Z,91.30
2019-03-27T07:52:25.600Z,91.60
2019-03-27T07:54:53.637Z,91.60
2019-03-27T07:57:21.798Z,91.60
2019-03-27T07:59:50.224Z,91.30
2019-03-27T08:02:19.850Z,90.90
2019-03-27T08:04:52.650Z,91.20
2019-03-27T08:11:38.815Z,91.70
2019-03-27T08:14:14.366Z,91.60
2019-03-27T08:17:01.786Z,91.80
2019-03-27T08:19:30.118Z,91.80
2019-03-27T08:22:03.761Z,92.40
2019-03-27T08:24:37.221Z,92.50
2019-03-27T08:27:08.523Z,92.30
2019-03-27T08:29:47.744Z,92.10
2019-03-27T08:32:14.062Z,92.10
2019-03-27T08:34:42.273Z,92.20
2019-03-27T08:37:11.178Z,91.80
2019-03-27T08:39:42.518Z,91.40
2019-03-27T08:42:11.584Z,91.10
2019-03-27T08:44:45.246Z,91.00
2019-03-27T08:47:13.779Z,90.80
2019-03-27T08:49:42.199Z,91.10
2019-03-27T08:52:10.885Z,90.40
2019-03-27T08:54:46.352Z,90.50
2019-03-27T08:57:14.461Z,90.70
2019-03-27T08:59:45.654Z,90.90
2019-03-27T09:02:15.730Z,90.60
2019-03-27T09:04:43.791Z,90.70
2019-03-27T09:07:11.888Z,91.10
2019-03-27T09:09:40.493Z,91.20
2019-03-27T09:12:08.749Z,91.40
2019-03-27T09:14:36.976Z,91.30
2019-03-27T09:17:05.684Z,91.10
2019-03-27T09:19:35.977Z,91.00
2019-03-27T09:22:03.858Z,90.80
2019-03-27T09:24:31.893Z,90.70
2019-03-27T09:27:02.773Z,88.80
2019-03-27T09:29:31.157Z,89.10
2019-03-27T09:31:59.303Z,88.90
2019-03-27T09:34:27.624Z,86.60
2019-03-27T09:36:55.893Z,86.50
2019-03-27T09:39:24.718Z,85.70
2019-03-27T09:41:53.509Z,85.20
2019-03-27T09:44:21.576Z,85.40
2019-03-27T09:46:49.816Z,85.00
2019-03-27T09:49:17.919Z,85.80
2019-03-27T09:51:46.006Z,85.80
2019-03-27T09:54:14.248Z,85.50
2019-03-27T09:56:42.374Z,85.50
2019-03-27T09:59:10.478Z,84.50
2019-03-27T10:01:39.645Z,83.70
2019-03-27T10:04:08.005Z,82.80
2019-03-27T10:06:36.160Z,81.80
2019-03-27T10:09:06.422Z,81.60
2019-03-27T10:11:34.677Z,77.70
2019-03-27T10:14:02.748Z,77.40
2019-03-27T10:16:30.934Z,78.00
2019-03-27T10:18:59.225Z,76.70
2019-03-27T10:21:27.686Z,76.30
2019-03-27T10:23:56.882Z,75.80
2019-03-27T10:26:25.024Z,76.40
2019-03-27T10:28:54.113Z,78.00
2019-03-27T10:31:22.383Z,78.50
2019-03-27T10:34:03.642Z,77.00
2019-03-27T10:36:35.126Z,78.30
2019-03-27T10:39:09.352Z,78.60
2019-03-27T10:41:38.015Z,78.60
2019-03-27T10:44:06.354Z,75.00
2019-03-27T10:46:34.691Z,73.80
2019-03-27T10:49:03.753Z,75.60
2019-03-27T10:51:32.093Z,76.10
2019-03-27T10:54:03.805Z,75.30
2019-03-27T10:56:32.257Z,75.50
2019-03-27T10:59:00.410Z,74.60
2019-03-27T11:01:28.700Z,74.90
2019-03-27T11:03:57.951Z,76.20
2019-03-27T11:06:26.376Z,76.80
2019-03-27T11:08:54.869Z,74.20
2019-03-27T11:11:23.249Z,74.00
2019-03-27T11:13:52.308Z,74.60
2019-03-27T11:16:20.994Z,74.00
2019-03-27T11:18:51.574Z,74.40
2019-03-27T11:21:20.965Z,73.90
2019-03-27T11:26:59.246Z,73.90
2019-03-27T11:29:27.532Z,74.50
2019-03-27T11:32:28.702Z,73.20
2019-03-27T11:35:04.505Z,73.30
2019-03-27T11:37:35.096Z,73.20
2019-03-27T11:40:12.599Z,73.30
2019-03-27T11:42:47.082Z,73.50
2019-03-27T11:45:15.807Z,73.80
2019-03-27T11:47:49.344Z,72.00
2019-03-27T11:50:28.317Z,72.30
2019-03-27T11:53:05.842Z,72.20
2019-03-27T11:55:37.603Z,71.20
2019-03-27T11:58:06.517Z,71.00
2019-03-27T12:00:38.142Z,71.50
2019-03-27T12:03:15.299Z,70.90
2019-03-27T12:05:54.594Z,71.10
2019-03-27T12:08:23.242Z,71.90
2019-03-27T12:11:34.169Z,72.00
2019-03-27T12:14:03.064Z,72.30
2019-03-27T12:16:49.994Z,72.90
2019-03-27T12:19:16.240Z,72.70
2019-03-27T12:21:49.886Z,71.80
2019-03-27T12:24:18.183Z,71.20
2019-03-27T12:26:47.241Z,69.70
2019-03-27T12:29:18.074Z,69.00
2019-03-27T12:31:45.897Z,68.10
2019-03-27T12:34:23.887Z,69.20
2019-03-27T12:36:52.410Z,66.60
2019-03-27T12:42:25.874Z,67.70
2019-03-27T12:45:13.198Z,66.60
2019-03-27T12:48:05.578Z,66.00
2019-03-27T12:50:44.387Z,67.00
2019-03-27T12:53:12.504Z,65.40
2019-03-27T12:55:48.304Z,66.10
2019-03-27T12:58:26.418Z,67.30
2019-03-27T13:00:55.894Z,68.00
2019-03-27T13:03:26.717Z,68.70
2019-03-27T13:06:07.514Z,68.80
2019-03-27T13:08:45.736Z,69.50
2019-03-27T13:11:14.386Z,70.20
2019-03-27T13:13:42.782Z,70.40
2019-03-27T13:16:11.080Z,70.90
2019-03-27T13:18:39.613Z,71.00
2019-03-27T13:21:08.494Z,71.00
2019-03-27T13:23:37.357Z,71.30
2019-03-27T13:26:05.581Z,71.20
2019-03-27T13:28:47.834Z,71.20
2019-03-27T13:31:05.874Z,70.90
2019-03-27T13:33:34.223Z,70.60
2019-03-27T13:36:02.683Z,70.20
2019-03-27T13:38:31.281Z,70.60
2019-03-27T13:41:02.756Z,70.20
2019-03-27T13:43:31.100Z,70.30
2019-03-27T13:45:59.706Z,70.80
2019-03-27T13:48:28.157Z,70.50
2019-03-27T13:50:56.557Z,70.60
2019-03-27T13:53:25.737Z,70.60
2019-03-27T13:55:54.181Z,71.60
2019-03-27T13:58:23.125Z,70.80
2019-03-27T14:00:51.389Z,70.70
2019-03-27T14:03:19.697Z,71.30
2019-03-27T14:05:48.021Z,70.30
2019-03-27T14:08:16.084Z,70.00
2019-03-27T14:10:44.529Z,70.20
2019-03-27T14:13:12.735Z,70.80
2019-03-27T14:15:40.976Z,71.50
2019-03-27T14:18:09.374Z,70.80
2019-03-27T14:20:43.369Z,70.30
2019-03-27T14:23:11.921Z,71.10
2019-03-27T14:25:40.275Z,71.30
2019-03-27T14:28:09.256Z,69.50
2019-03-27T14:31:03.021Z,70.00
2019-03-27T14:33:31.278Z,69.40
2019-03-27T14:35:59.825Z,69.00
2019-03-27T14:38:28.013Z,69.20
2019-03-27T14:40:56.371Z,68.90
2019-03-27T14:43:27.093Z,69.20
2019-03-27T14:45:54.717Z,69.10
2019-03-27T14:48:23.144Z,69.00
2019-03-27T14:50:51.473Z,68.90
2019-03-27T14:53:19.821Z,69.60
2019-03-27T14:55:48.032Z,69.70
2019-03-27T14:58:16.217Z,68.80
2019-03-27T15:00:45.019Z,68.30
2019-03-27T15:03:13.230Z,68.80
2019-03-27T15:05:46.713Z,69.30
2019-03-27T15:08:15.028Z,69.30
2019-03-27T15:10:43.434Z,69.10
2019-03-27T15:13:15.048Z,69.50
2019-03-27T15:15:41.742Z,68.30
2019-03-27T15:18:10.131Z,67.50
2019-03-27T15:20:39.098Z,67.00
2019-03-27T15:23:07.503Z,65.50
2019-03-27T15:25:38.393Z,66.30
2019-03-27T15:28:06.918Z,65.90
2019-03-27T15:30:35.270Z,66.30
2019-03-27T15:33:06.981Z,65.70
2019-03-27T15:35:35.442Z,65.80
2019-03-27T15:38:05.313Z,64.90
2019-03-27T15:40:42.234Z,64.10
2019-03-27T15:43:11.023Z,64.40
2019-03-27T15:45:39.527Z,64.10
2019-03-27T15:48:09.803Z,64.70
2019-03-27T15:50:38.183Z,64.40
2019-03-27T15:53:06.681Z,65.30
2019-03-27T15:55:35.498Z,64.50
2019-03-27T15:58:04.329Z,63.90
2019-03-27T16:00:35.011Z,64.10
2019-03-27T16:06:21.705Z,64.70
2019-03-27T16:08:50.609Z,65.30
2019-03-27T16:11:19.005Z,65.00
2019-03-27T16:13:47.502Z,65.20
2019-03-27T16:16:20.325Z,65.10
2019-03-27T16:18:53.324Z,64.90
2019-03-27T16:21:21.916Z,65.00
2019-03-27T16:24:06.287Z,65.10
2019-03-27T16:26:30.623Z,65.00
2019-03-27T16:29:00.170Z,75.10
2019-03-27T16:31:28.222Z,65.80
2019-03-27T16:33:56.288Z,66.00
2019-03-27T16:36:37.596Z,64.40
2019-03-27T16:39:13.335Z,64.30
2019-03-27T16:41:48.018Z,64.90
2019-03-27T16:44:18.316Z,65.70
2019-03-27T16:46:48.155Z,65.50
2019-03-27T16:49:16.370Z,65.20
2019-03-27T16:51:44.746Z,65.50
2019-03-27T16:54:12.785Z,64.80
2019-03-27T16:56:41.128Z,65.10
2019-03-27T16:59:09.284Z,65.30
2019-03-27T17:04:43.325Z,65.20
2019-03-27T17:07:20.558Z,64.90
2019-03-27T17:09:53.182Z,64.50
2019-03-27T17:12:21.199Z,64.40
2019-03-27T17:14:49.368Z,65.00
2019-03-27T17:17:17.822Z,65.80
2019-03-27T17:19:46.209Z,64.90
2019-03-27T17:23:21.527Z,65.20
2019-03-27T17:25:57.577Z,65.80
2019-03-27T17:28:25.713Z,66.00
2019-03-27T17:30:53.701Z,65.50
2019-03-27T17:33:21.929Z,66.10
2019-03-27T17:35:49.987Z,65.60
2019-03-27T17:38:18.354Z,65.40
2019-03-27T17:40:46.989Z,65.50
2019-03-27T17:43:15.036Z,65.80
2019-03-27T17:45:45.458Z,66.30
2019-03-27T17:48:13.836Z,66.10
2019-03-27T17:50:41.840Z,66.10
2019-03-27T17:53:10.157Z,66.50
2019-03-27T17:55:38.228Z,66.50
2019-03-27T17:58:06.450Z,66.60
2019-03-27T18:00:48.802Z,66.40
2019-03-27T18:03:17.114Z,67.10
2019-03-27T18:05:53.917Z,66.90
2019-03-27T18:08:22.627Z,67.10
2019-03-27T18:10:50.739Z,67.70
2019-03-27T18:13:18.780Z,67.90
2019-03-27T18:15:57.010Z,68.00
2019-03-27T18:18:28.877Z,68.50
2019-03-27T18:20:57.382Z,68.80
2019-03-27T18:23:45.363Z,69.40
2019-03-27T18:26:04.220Z,69.80
2019-03-27T18:28:32.849Z,70.10
2019-03-27T18:31:01.005Z,70.30
2019-03-27T18:33:29.492Z,70.40
2019-03-27T18:35:57.745Z,70.50
2019-03-27T18:38:26.203Z,70.50
2019-03-27T18:40:54.738Z,70.20
2019-03-27T18:43:23.292Z,70.90
2019-03-27T18:45:51.727Z,70.60
2019-03-27T18:48:20.219Z,70.80
2019-03-27T18:50:48.498Z,71.40
2019-03-27T18:53:16.709Z,71.90
2019-03-27T18:55:47.283Z,72.20
2019-03-27T18:58:15.492Z,72.40
2019-03-27T19:00:43.673Z,72.30
2019-03-27T19:03:12.001Z,72.20
2019-03-27T19:05:40.148Z,72.10
2019-03-27T19:08:09.107Z,72.00
2019-03-27T19:10:38.289Z,71.60
2019-03-27T19:13:10.369Z,71.00
2019-03-27T19:15:49.293Z,71.00
2019-03-27T19:18:28.114Z,70.90
2019-03-27T19:21:05.867Z,71.10
2019-03-27T19:23:34.284Z,71.20
2019-03-27T19:26:02.857Z,71.40
2019-03-27T19:28:37.093Z,71.60
2019-03-27T19:31:05.541Z,71.80
2019-03-27T19:33:33.827Z,72.30
2019-03-27T19:36:02.275Z,73.10
2019-03-27T19:38:30.813Z,73.80
2019-03-27T19:40:58.954Z,74.20
2019-03-27T19:43:27.118Z,74.60
2019-03-27T19:45:57.629Z,74.90
2019-03-27T19:48:25.868Z,74.90
2019-03-27T19:50:54.277Z,75.20
2019-03-27T19:53:22.384Z,75.30
2019-03-27T19:55:50.585Z,75.50
2019-03-27T19:58:18.799Z,75.80
2019-03-27T20:00:47.229Z,75.70
2019-03-27T20:03:15.517Z,75.60
2019-03-27T20:05:44.839Z,76.60
2019-03-27T20:08:13.207Z,76.20
2019-03-27T20:10:44.349Z,76.10
2019-03-27T20:13:12.623Z,76.40
2019-03-27T20:15:43.505Z,76.60
2019-03-27T20:18:11.890Z,76.10
2019-03-27T20:20:42.637Z,76.30
2019-03-27T20:23:18.321Z,76.50
2019-03-27T20:25:47.157Z,76.70
2019-03-27T20:28:15.947Z,76.70
2019-03-27T20:30:44.386Z,76.70
2019-03-27T20:33:12.553Z,77.10
2019-03-27T20:35:41.133Z,76.70
2019-03-27T20:38:09.721Z,76.80
2019-03-27T20:40:39.363Z,77.40
2019-03-27T20:43:07.859Z,78.00
2019-03-27T20:45:39.803Z,77.60
2019-03-27T20:48:11.401Z,79.20
2019-03-27T20:50:41.674Z,79.50
2019-03-27T20:53:10.200Z,79.70
2019-03-27T20:55:43.427Z,80.00
2019-03-27T20:58:12.229Z,80.30
2019-03-27T21:00:40.841Z,80.50
2019-03-27T21:03:09.554Z,80.50
2019-03-27T21:05:40.579Z,81.70
2019-03-27T21:08:09.216Z,82.20
2019-03-27T21:10:37.927Z,82.50
2019-03-27T21:13:09.357Z,82.10
2019-03-27T21:15:40.639Z,82.10
2019-03-27T21:18:15.375Z,82.50
2019-03-27T21:20:43.975Z,82.60
2019-03-27T21:23:15.318Z,82.90
2019-03-27T21:25:44.064Z,84.10
2019-03-27T21:28:14.716Z,83.80
2019-03-27T21:30:43.485Z,84.00
2019-03-27T21:33:12.502Z,84.00
2019-03-27T21:35:55.286Z,84.30
2019-03-27T21:38:29.354Z,84.40
2019-03-27T21:40:59.272Z,84.30
2019-03-27T21:43:27.623Z,84.20
2019-03-27T21:45:58.257Z,84.20
2019-03-27T21:48:26.645Z,84.30
2019-03-27T21:50:54.997Z,84.40
2019-03-27T21:53:25.491Z,85.50
2019-03-27T21:55:54.517Z,85.20
2019-03-27T21:58:25.851Z,85.70
2019-03-27T22:00:54.217Z,85.90
2019-03-27T22:03:22.276Z,85.90
2019-03-27T22:05:50.510Z,86.00
2019-03-27T22:08:19.640Z,85.90
2019-03-27T22:10:47.927Z,86.30
2019-03-27T22:13:16.076Z,85.40
2019-03-27T22:15:44.857Z,85.70
2019-03-27T22:18:13.046Z,86.10
2019-03-27T22:20:41.444Z,86.60
2019-03-27T22:23:09.659Z,86.80
2019-03-27T22:25:38.199Z,86.80
2019-03-27T22:28:08.529Z,87.00
2019-03-27T22:30:38.752Z,87.10
2019-03-27T22:33:07.865Z,87.30
2019-03-27T22:35:36.557Z,87.40
2019-03-27T22:38:05.107Z,87.50
2019-03-27T22:40:33.274Z,87.70
2019-03-27T22:43:02.149Z,88.70
2019-03-27T22:45:30.958Z,88.50
2019-03-27T22:48:02.096Z,88.50
2019-03-27T22:50:30.655Z,88.40
2019-03-27T22:53:00.362Z,88.60
2019-03-27T22:55:29.823Z,88.00
2019-03-27T22:57:58.199Z,88.40
2019-03-27T23:00:45.807Z,88.50
2019-03-27T23:03:18.434Z,88.90
2019-03-27T23:05:44.610Z,89.20
2019-03-27T23:08:13.532Z,89.70
2019-03-27T23:10:42.029Z,90.10
2019-03-27T23:13:11.107Z,90.30
2019-03-27T23:15:41.607Z,90.30
2019-03-27T23:18:09.897Z,90.20
2019-03-27T23:20:38.173Z,90.20
2019-03-27T23:23:06.565Z,90.30
2019-03-27T23:25:34.688Z,90.50
2019-03-27T23:28:02.992Z,90.70
2019-03-27T23:30:31.189Z,91.00
2019-03-27T23:32:59.470Z,91.00
2019-03-27T23:35:27.717Z,91.20
2019-03-27T23:37:55.993Z,91.20
2019-03-27T23:40:24.214Z,91.20
2019-03-27T23:42:52.256Z,91.20
2019-03-27T23:45:20.370Z,91.30
2019-03-27T23:47:48.441Z,91.10
2019-03-27T23:50:16.448Z,91.00
2019-03-27T23:52:44.642Z,91.10
2019-03-27T23:55:12.784Z,91.10
2019-03-27T23:57:42.825Z,91.10
